Moosonee, Canada
Current Conditions -  °F | °C
As of 7:08 AM on Monday 22 Dec 2014 (Local Time) from CYMO Reporting Station
Light Snow Light Snow  
Wind Chill: -9°   Ceiling: 2700
Heat Index: -4°   Visibility: 6mi
Dew Point: -5°   Wind: 8mph
Humidity: 93%   Direction: 160°SSE
Pressure: 30.09"   Gusts: NA
Location:  51.27°N, 80.64°W
Report Text: CYMO 221208Z AUTO 16007KT 6SM -SN BKN027 OVC036 M04/M05 A3009 RMK SLP189
Loading
Personal Weather Stations






























Interactive Weather Map New forecast layout! Learn more

10-Day Weather Forecast

Advertisements
Track Severe Weather on mobile